createdAt,value
2022-10-26T00:00:40.741Z,0.00
2022-10-26T00:01:40.857Z,0.00
2022-10-26T00:02:40.772Z,0.00
2022-10-26T00:03:40.684Z,0.00
2022-10-26T00:04:40.688Z,0.00
2022-10-26T00:05:40.701Z,0.00
2022-10-26T00:06:40.642Z,0.00
2022-10-26T00:08:40.645Z,0.00
2022-10-26T00:09:40.656Z,0.00
2022-10-26T00:10:40.630Z,0.00
2022-10-26T00:11:40.607Z,0.00
2022-10-26T00:12:40.727Z,0.00
2022-10-26T00:13:40.563Z,0.00
2022-10-26T00:14:40.553Z,0.00
2022-10-26T00:15:40.547Z,0.00
2022-10-26T00:16:40.555Z,0.00
2022-10-26T00:17:40.534Z,0.00
2022-10-26T00:18:40.568Z,0.00
2022-10-26T00:19:40.495Z,0.00
2022-10-26T00:20:40.577Z,0.00
2022-10-26T00:21:40.491Z,0.00
2022-10-26T00:22:40.500Z,0.00
2022-10-26T00:23:40.459Z,0.00
2022-10-26T00:24:40.446Z,0.00
2022-10-26T00:25:40.447Z,0.00
2022-10-26T00:26:40.460Z,0.00
2022-10-26T00:27:40.451Z,0.00
2022-10-26T00:28:40.414Z,0.00
2022-10-26T00:29:40.380Z,0.00
2022-10-26T00:30:40.387Z,0.00
2022-10-26T00:31:40.421Z,0.00
2022-10-26T00:33:40.353Z,0.00
2022-10-26T00:34:40.349Z,0.00
2022-10-26T00:35:46.058Z,0.00
2022-10-26T00:36:41.341Z,0.00
2022-10-26T00:37:40.303Z,0.00
2022-10-26T00:38:40.300Z,0.00
2022-10-26T00:39:40.281Z,0.00
2022-10-26T00:40:40.274Z,0.00
2022-10-26T00:41:40.245Z,0.00
2022-10-26T00:42:40.292Z,0.00
2022-10-26T00:43:40.255Z,0.00
2022-10-26T00:44:40.225Z,0.00
2022-10-26T00:45:40.216Z,0.00
2022-10-26T00:46:40.195Z,0.00
2022-10-26T00:47:40.224Z,0.00
2022-10-26T00:48:40.185Z,0.00
2022-10-26T00:49:40.160Z,0.00
2022-10-26T00:50:40.166Z,0.00
2022-10-26T00:51:40.168Z,0.00
2022-10-26T00:52:40.146Z,0.00
2022-10-26T00:53:40.123Z,0.00
2022-10-26T00:54:40.108Z,0.00
2022-10-26T00:55:40.076Z,0.00
2022-10-26T00:56:40.206Z,0.00
2022-10-26T00:57:40.069Z,0.00
2022-10-26T00:58:40.075Z,0.00
2022-10-26T00:59:40.034Z,0.00
2022-10-26T01:00:40.049Z,0.00
2022-10-26T01:01:40.132Z,0.00
2022-10-26T01:02:40.048Z,0.00
2022-10-26T01:03:40.097Z,0.00
2022-10-26T01:04:40.000Z,0.00
2022-10-26T01:05:39.979Z,0.00
2022-10-26T01:06:39.954Z,0.00
2022-10-26T01:07:39.947Z,0.00
2022-10-26T01:08:40.003Z,0.00
2022-10-26T01:09:39.931Z,0.00
2022-10-26T01:10:39.928Z,0.00
2022-10-26T01:11:39.911Z,0.00
2022-10-26T01:12:39.879Z,0.00
2022-10-26T01:13:39.942Z,0.00
2022-10-26T01:14:39.858Z,0.00
2022-10-26T01:15:39.882Z,0.00
2022-10-26T01:16:42.029Z,0.00
2022-10-26T01:17:39.819Z,0.00
2022-10-26T01:18:39.830Z,0.00
2022-10-26T01:19:39.829Z,0.00
2022-10-26T01:20:39.805Z,0.00
2022-10-26T01:21:39.827Z,0.00
2022-10-26T01:22:39.783Z,0.00
2022-10-26T01:23:39.758Z,0.00
2022-10-26T01:24:39.790Z,0.00
2022-10-26T01:25:39.744Z,0.00
2022-10-26T01:26:39.743Z,0.00
2022-10-26T01:27:39.722Z,0.00
2022-10-26T01:28:39.703Z,0.00
2022-10-26T01:29:39.749Z,0.00
2022-10-26T01:30:39.701Z,0.00
2022-10-26T01:31:39.693Z,0.00
2022-10-26T01:32:39.667Z,0.00
2022-10-26T01:33:39.643Z,0.00
2022-10-26T01:34:39.625Z,0.00
2022-10-26T01:35:39.663Z,0.00
2022-10-26T01:36:39.674Z,0.00
2022-10-26T01:37:39.627Z,0.00
2022-10-26T01:38:39.597Z,0.00
2022-10-26T01:39:39.598Z,0.00
2022-10-26T01:40:39.563Z,0.00
2022-10-26T01:41:39.573Z,0.00
2022-10-26T01:42:39.565Z,0.00
2022-10-26T01:43:39.525Z,0.00
2022-10-26T01:44:39.537Z,0.00
2022-10-26T01:45:39.509Z,0.00
2022-10-26T01:46:39.518Z,0.00
2022-10-26T01:47:39.520Z,0.00
2022-10-26T01:48:39.486Z,0.00
2022-10-26T01:49:44.079Z,0.00
2022-10-26T01:50:39.447Z,0.00
2022-10-26T01:51:39.440Z,0.00
2022-10-26T01:52:39.479Z,0.00
2022-10-26T01:53:39.421Z,0.00
2022-10-26T01:54:39.409Z,0.00
2022-10-26T01:55:39.389Z,0.00
2022-10-26T01:56:39.373Z,0.00
2022-10-26T01:57:39.418Z,0.00
2022-10-26T01:58:39.389Z,0.00
2022-10-26T01:59:39.339Z,0.00
2022-10-26T02:00:39.332Z,0.00
2022-10-26T02:01:39.410Z,0.00
2022-10-26T02:02:39.334Z,0.00
2022-10-26T02:03:39.340Z,0.00
2022-10-26T02:04:39.355Z,0.00
2022-10-26T02:05:39.271Z,0.00
2022-10-26T02:06:39.262Z,0.00
2022-10-26T02:07:39.251Z,0.00
2022-10-26T02:08:39.274Z,0.00
2022-10-26T02:09:39.222Z,0.00
2022-10-26T02:10:39.258Z,0.00
2022-10-26T02:11:39.231Z,0.00
2022-10-26T02:12:39.202Z,0.00
2022-10-26T02:13:39.185Z,0.00
2022-10-26T02:14:39.184Z,0.00
2022-10-26T02:15:39.172Z,0.00
2022-10-26T02:16:39.162Z,0.00
2022-10-26T02:17:39.154Z,0.00
2022-10-26T02:18:39.157Z,0.00
2022-10-26T02:19:39.150Z,0.00
2022-10-26T02:20:39.128Z,0.00
2022-10-26T02:21:39.149Z,0.00
2022-10-26T02:22:39.068Z,0.00
2022-10-26T02:23:39.079Z,0.00
2022-10-26T02:24:39.069Z,0.00
2022-10-26T02:25:39.077Z,0.00
2022-10-26T02:26:39.055Z,0.00
2022-10-26T02:27:39.089Z,0.00
2022-10-26T02:28:39.010Z,0.00
2022-10-26T02:29:38.998Z,0.00
2022-10-26T02:30:38.999Z,0.00
2022-10-26T02:31:39.014Z,0.00
2022-10-26T02:32:38.983Z,0.00
2022-10-26T02:33:39.059Z,0.00
2022-10-26T02:34:38.938Z,0.00
2022-10-26T02:35:38.940Z,0.00
2022-10-26T02:36:38.947Z,0.00
2022-10-26T02:37:38.904Z,0.00
2022-10-26T02:38:38.888Z,0.00
2022-10-26T02:39:38.934Z,0.00
2022-10-26T02:40:38.869Z,0.00
2022-10-26T02:41:38.889Z,0.00
2022-10-26T02:42:38.861Z,0.00
2022-10-26T02:43:38.892Z,0.00
2022-10-26T02:44:38.833Z,0.00
2022-10-26T02:45:38.854Z,0.00
2022-10-26T02:46:38.832Z,0.00
2022-10-26T02:47:38.789Z,0.00
2022-10-26T02:48:38.798Z,0.00
2022-10-26T02:49:38.791Z,0.00
2022-10-26T02:50:38.771Z,0.00
2022-10-26T02:51:38.807Z,0.00
2022-10-26T02:52:38.746Z,0.00
2022-10-26T02:53:38.733Z,0.00
2022-10-26T02:54:38.704Z,0.00
2022-10-26T02:55:38.720Z,0.00
2022-10-26T02:56:38.716Z,0.00
2022-10-26T02:57:38.693Z,0.00
2022-10-26T02:58:38.703Z,0.00
2022-10-26T02:59:38.644Z,0.00
2022-10-26T03:00:38.671Z,0.00
2022-10-26T03:01:38.745Z,0.00
2022-10-26T03:02:38.613Z,0.00
2022-10-26T03:03:38.691Z,0.00
2022-10-26T03:04:38.604Z,0.00
2022-10-26T03:05:38.584Z,0.00
2022-10-26T03:06:38.598Z,0.00
2022-10-26T03:07:38.623Z,0.00
2022-10-26T03:08:38.549Z,0.00
2022-10-26T03:09:38.575Z,0.00
2022-10-26T03:10:38.517Z,0.00
2022-10-26T03:11:38.590Z,0.00
2022-10-26T03:12:38.510Z,0.00
2022-10-26T03:13:38.517Z,0.00
2022-10-26T03:14:38.520Z,0.00
2022-10-26T03:15:38.457Z,0.00
2022-10-26T03:16:38.529Z,0.00
2022-10-26T03:17:38.458Z,0.00
2022-10-26T03:18:38.419Z,0.00
2022-10-26T03:19:38.429Z,0.00
2022-10-26T03:20:38.409Z,0.00
2022-10-26T03:21:38.428Z,0.00
2022-10-26T03:22:38.398Z,0.00
2022-10-26T03:23:38.398Z,0.00
2022-10-26T03:24:38.392Z,0.00
2022-10-26T03:25:38.384Z,0.00
2022-10-26T03:26:38.363Z,0.00
2022-10-26T03:27:38.372Z,0.00
2022-10-26T03:28:38.362Z,0.00
2022-10-26T03:29:38.325Z,0.00
2022-10-26T03:30:38.329Z,0.00
2022-10-26T03:31:38.303Z,0.00
2022-10-26T03:32:38.270Z,0.00
2022-10-26T03:34:38.294Z,0.00
2022-10-26T03:35:38.247Z,0.00
2022-10-26T03:36:38.255Z,0.00
2022-10-26T03:37:38.203Z,0.00
2022-10-26T03:38:38.207Z,0.00
2022-10-26T03:39:38.202Z,0.00
2022-10-26T03:40:38.163Z,0.00
2022-10-26T03:41:38.174Z,0.00
2022-10-26T03:42:38.145Z,0.00
2022-10-26T03:43:38.134Z,0.00
2022-10-26T03:44:38.147Z,0.00
2022-10-26T03:45:38.137Z,0.00
2022-10-26T03:46:38.114Z,0.00
2022-10-26T03:47:38.098Z,0.00
2022-10-26T03:48:38.088Z,0.00
2022-10-26T03:49:38.076Z,0.00
2022-10-26T03:50:38.089Z,0.00
2022-10-26T03:51:38.075Z,0.00
2022-10-26T03:52:38.053Z,0.00
2022-10-26T03:53:38.059Z,0.00
2022-10-26T03:54:38.015Z,0.00
2022-10-26T03:55:38.020Z,0.00
2022-10-26T03:56:38.000Z,0.00
2022-10-26T03:57:37.978Z,0.00
2022-10-26T03:58:37.995Z,0.00
2022-10-26T03:59:37.970Z,0.00
2022-10-26T04:00:37.938Z,0.00
2022-10-26T04:01:38.049Z,0.00
2022-10-26T04:02:37.923Z,0.00
2022-10-26T04:03:37.963Z,0.00
2022-10-26T04:04:37.963Z,0.00
2022-10-26T04:05:37.912Z,0.00
2022-10-26T04:06:37.982Z,0.00
2022-10-26T04:07:37.861Z,0.00
2022-10-26T04:08:37.864Z,0.00
2022-10-26T04:09:37.900Z,0.00
2022-10-26T04:10:37.832Z,0.00
2022-10-26T04:11:37.825Z,0.00
2022-10-26T04:12:37.814Z,0.00
2022-10-26T04:13:37.827Z,0.00
2022-10-26T04:14:37.771Z,0.00
2022-10-26T04:15:37.816Z,0.00
2022-10-26T04:16:37.783Z,0.00
2022-10-26T04:17:37.753Z,0.00
2022-10-26T04:18:37.740Z,0.00
2022-10-26T04:19:37.737Z,0.00
2022-10-26T04:20:37.757Z,0.00
2022-10-26T04:21:37.714Z,0.00
2022-10-26T04:22:37.696Z,0.00
2022-10-26T04:23:37.695Z,0.00
2022-10-26T04:24:37.660Z,0.00
2022-10-26T04:25:37.689Z,0.00
2022-10-26T04:26:37.678Z,0.00
2022-10-26T04:27:37.624Z,0.00
2022-10-26T04:28:37.680Z,0.00
2022-10-26T04:29:37.619Z,0.00
2022-10-26T04:30:37.610Z,0.00
2022-10-26T04:31:37.673Z,0.00
2022-10-26T04:32:37.558Z,0.00
2022-10-26T04:33:37.576Z,0.00
2022-10-26T04:34:37.601Z,0.00
2022-10-26T04:35:37.526Z,0.00
2022-10-26T04:36:37.548Z,0.00
2022-10-26T04:37:37.533Z,0.00
2022-10-26T04:38:37.496Z,0.00
2022-10-26T04:39:37.489Z,0.00
2022-10-26T04:40:37.511Z,0.00
2022-10-26T04:41:37.511Z,0.00
2022-10-26T04:42:37.509Z,0.00
2022-10-26T04:43:37.450Z,0.00
2022-10-26T04:44:37.431Z,0.00
2022-10-26T04:45:37.419Z,0.00
2022-10-26T04:46:37.442Z,0.00
2022-10-26T04:47:37.434Z,0.00
2022-10-26T04:48:37.419Z,0.00
2022-10-26T04:49:37.393Z,0.00
2022-10-26T04:50:37.376Z,0.00
2022-10-26T04:51:37.345Z,0.00
2022-10-26T04:52:37.382Z,0.00
2022-10-26T04:53:37.353Z,0.00
2022-10-26T04:54:37.362Z,0.00
2022-10-26T04:55:37.304Z,0.00
2022-10-26T04:56:37.346Z,0.00
2022-10-26T04:57:37.306Z,0.00
2022-10-26T04:58:37.285Z,0.00
2022-10-26T04:59:37.274Z,0.00
2022-10-26T05:00:37.262Z,0.00
2022-10-26T05:01:37.314Z,0.00
2022-10-26T05:02:37.267Z,0.00
2022-10-26T05:03:37.247Z,0.00
2022-10-26T05:04:37.209Z,0.00
2022-10-26T05:05:37.313Z,0.00
2022-10-26T05:06:37.166Z,0.00
2022-10-26T05:07:37.174Z,0.00
2022-10-26T05:08:37.188Z,0.00
2022-10-26T05:09:37.146Z,0.00
2022-10-26T05:10:37.155Z,0.00
2022-10-26T05:11:37.156Z,0.00
2022-10-26T05:12:37.095Z,0.00
2022-10-26T05:13:37.110Z,0.00
2022-10-26T05:14:37.096Z,0.00
2022-10-26T05:15:37.099Z,0.00
2022-10-26T05:16:37.056Z,0.00
2022-10-26T05:17:37.069Z,0.00
2022-10-26T05:18:37.050Z,0.00
2022-10-26T05:19:37.046Z,0.00
2022-10-26T05:20:37.007Z,0.00
2022-10-26T05:21:37.057Z,0.00
2022-10-26T05:22:37.002Z,0.00
2022-10-26T05:23:37.013Z,0.00
2022-10-26T05:24:36.985Z,0.00
2022-10-26T05:25:36.957Z,4.00
2022-10-26T05:26:36.959Z,4.00
2022-10-26T05:27:36.940Z,0.00
2022-10-26T05:28:36.920Z,0.00
2022-10-26T05:29:36.929Z,0.00
2022-10-26T05:30:36.921Z,4.00
2022-10-26T05:31:36.880Z,4.00
2022-10-26T05:32:36.953Z,0.00
2022-10-26T05:33:36.863Z,4.00
2022-10-26T05:34:39.447Z,4.00
2022-10-26T05:35:36.855Z,4.00
2022-10-26T05:36:36.835Z,8.00
2022-10-26T05:37:36.840Z,8.00
2022-10-26T05:38:36.847Z,8.00
2022-10-26T05:39:36.825Z,8.00
2022-10-26T05:40:36.772Z,12.00
2022-10-26T05:41:36.782Z,16.00
2022-10-26T05:42:36.768Z,20.00
2022-10-26T05:43:36.777Z,24.00
2022-10-26T05:44:36.775Z,24.00
2022-10-26T05:45:36.757Z,32.00
2022-10-26T05:46:36.757Z,36.00
2022-10-26T05:47:36.747Z,40.00
2022-10-26T05:48:36.708Z,40.00
2022-10-26T05:49:36.692Z,52.00
2022-10-26T05:50:36.698Z,60.00
2022-10-26T05:51:36.645Z,76.00
2022-10-26T05:52:36.645Z,80.00
2022-10-26T05:53:36.668Z,88.00
2022-10-26T05:54:36.606Z,96.00
2022-10-26T05:55:36.669Z,108.00
2022-10-26T05:56:36.610Z,116.00
2022-10-26T05:57:36.576Z,124.00
2022-10-26T05:58:36.566Z,128.00
2022-10-26T05:59:36.557Z,144.00
2022-10-26T06:00:36.618Z,156.00
2022-10-26T06:01:36.640Z,172.00
2022-10-26T06:02:36.551Z,188.00
2022-10-26T06:03:36.535Z,204.00
2022-10-26T06:04:36.498Z,224.00
2022-10-26T06:05:36.480Z,244.00
2022-10-26T06:06:36.534Z,260.00
2022-10-26T06:07:36.480Z,284.00
2022-10-26T06:08:36.459Z,308.00
2022-10-26T06:09:36.472Z,332.00
2022-10-26T06:10:36.463Z,364.00
2022-10-26T06:11:36.461Z,388.00
2022-10-26T06:12:36.425Z,416.00
2022-10-26T06:13:36.423Z,456.00
2022-10-26T06:14:36.413Z,488.00
2022-10-26T06:15:36.394Z,524.00
2022-10-26T06:16:36.380Z,560.00
2022-10-26T06:17:36.411Z,604.00
2022-10-26T06:18:36.332Z,664.00
2022-10-26T06:19:36.365Z,704.00
2022-10-26T06:20:36.323Z,772.00
2022-10-26T06:21:36.315Z,828.00
2022-10-26T06:22:36.294Z,872.00
2022-10-26T06:23:36.349Z,956.00
2022-10-26T06:24:36.286Z,1028.00
2022-10-26T06:25:36.273Z,1076.00
2022-10-26T06:26:36.288Z,1168.00
2022-10-26T06:27:36.246Z,1252.00
2022-10-26T06:28:36.255Z,1328.00
2022-10-26T06:29:36.212Z,1424.00
2022-10-26T06:30:36.255Z,1520.00
2022-10-26T06:31:36.198Z,1644.00
2022-10-26T06:32:36.165Z,1692.00
2022-10-26T06:33:36.178Z,1788.00
2022-10-26T06:34:36.154Z,1904.00
2022-10-26T06:35:36.171Z,2080.00
2022-10-26T06:36:36.145Z,2192.00
2022-10-26T06:37:36.149Z,2436.00
2022-10-26T06:38:36.119Z,2572.00
2022-10-26T06:39:36.088Z,2688.00
2022-10-26T06:40:36.100Z,2840.00
2022-10-26T06:41:36.120Z,3056.00
2022-10-26T06:42:36.090Z,3080.00
2022-10-26T06:43:36.047Z,3124.00
2022-10-26T06:44:36.047Z,3160.00
2022-10-26T06:45:36.114Z,3016.00
2022-10-26T06:46:36.041Z,3064.00
2022-10-26T06:47:36.018Z,2980.00
2022-10-26T06:48:35.988Z,2980.00
2022-10-26T06:49:35.985Z,2752.00
2022-10-26T06:50:35.991Z,2720.00
2022-10-26T06:51:35.960Z,2656.00
2022-10-26T06:52:35.982Z,2624.00
2022-10-26T06:53:36.020Z,2644.00
2022-10-26T06:54:35.920Z,2664.00
2022-10-26T06:55:35.921Z,2732.00
2022-10-26T06:56:35.904Z,2788.00
2022-10-26T06:57:35.895Z,2816.00
2022-10-26T06:58:35.906Z,2784.00
2022-10-26T06:59:35.891Z,2772.00
2022-10-26T07:00:35.871Z,2788.00
2022-10-26T07:01:35.922Z,2856.00
2022-10-26T07:02:35.967Z,2988.00
2022-10-26T07:03:35.846Z,3156.00
2022-10-26T07:04:35.865Z,3288.00
2022-10-26T07:05:35.797Z,3368.00
2022-10-26T07:06:38.407Z,3424.00
2022-10-26T07:07:35.803Z,3428.00
2022-10-26T07:08:35.767Z,3388.00
2022-10-26T07:09:35.774Z,3336.00
2022-10-26T07:10:36.066Z,3312.00
2022-10-26T07:11:35.738Z,3268.00
2022-10-26T07:12:35.737Z,3240.00
2022-10-26T07:13:35.719Z,3248.00
2022-10-26T07:14:35.745Z,3272.00
2022-10-26T07:15:35.686Z,3304.00
2022-10-26T07:16:35.695Z,3328.00
2022-10-26T07:17:38.261Z,3316.00
2022-10-26T07:18:35.657Z,3280.00
2022-10-26T07:19:35.639Z,3252.00
2022-10-26T07:20:35.639Z,3220.00
2022-10-26T07:21:35.606Z,3196.00
2022-10-26T07:22:35.687Z,3160.00
2022-10-26T07:23:35.613Z,3128.00
2022-10-26T07:24:35.669Z,3108.00
2022-10-26T07:25:35.586Z,3096.00
2022-10-26T07:26:35.570Z,3100.00
2022-10-26T07:27:35.550Z,3104.00
2022-10-26T07:28:35.526Z,3128.00
2022-10-26T07:29:35.567Z,3160.00
2022-10-26T07:30:35.532Z,3204.00
2022-10-26T07:31:35.505Z,3256.00
2022-10-26T07:32:35.646Z,3320.00
2022-10-26T07:33:38.041Z,3376.00
2022-10-26T07:34:36.523Z,3436.00
2022-10-26T07:35:35.444Z,3484.00
2022-10-26T07:36:35.445Z,3508.00
2022-10-26T07:37:35.442Z,3508.00
2022-10-26T07:38:35.441Z,3516.00
2022-10-26T07:39:35.458Z,3536.00
2022-10-26T07:40:35.395Z,3580.00
2022-10-26T07:41:35.375Z,3648.00
2022-10-26T07:42:35.375Z,3728.00
2022-10-26T07:43:35.372Z,3828.00
2022-10-26T07:44:35.394Z,3936.00
2022-10-26T07:45:35.338Z,4064.00
2022-10-26T07:46:35.357Z,4204.00
2022-10-26T07:47:35.313Z,4332.00
2022-10-26T07:48:35.393Z,4424.00
2022-10-26T07:49:35.293Z,4540.00
2022-10-26T07:50:35.325Z,4648.00
2022-10-26T07:51:35.269Z,4772.00
2022-10-26T07:52:35.260Z,4904.00
2022-10-26T07:53:35.277Z,5040.00
2022-10-26T07:54:35.239Z,5188.00
2022-10-26T07:55:35.259Z,5328.00
2022-10-26T07:56:35.239Z,5456.00
2022-10-26T07:57:35.211Z,5560.00
2022-10-26T07:58:35.211Z,5652.00
2022-10-26T07:59:35.179Z,5740.00
2022-10-26T08:00:35.234Z,5816.00
2022-10-26T08:01:35.272Z,5888.00
2022-10-26T08:02:35.136Z,5956.00
2022-10-26T08:03:35.139Z,6024.00
2022-10-26T08:04:35.111Z,6100.00
2022-10-26T08:05:35.145Z,6180.00
2022-10-26T08:06:35.133Z,6260.00
2022-10-26T08:07:35.090Z,6360.00
2022-10-26T08:08:35.094Z,6484.00
2022-10-26T08:09:35.073Z,6628.00
2022-10-26T08:10:35.092Z,6820.00
2022-10-26T08:11:35.074Z,7032.00
2022-10-26T08:12:35.029Z,7256.00
2022-10-26T08:13:35.015Z,7500.00
2022-10-26T08:14:35.004Z,7728.00
2022-10-26T08:15:35.024Z,7940.00
2022-10-26T08:16:35.036Z,8128.00
2022-10-26T08:17:34.951Z,8276.00
2022-10-26T08:18:34.951Z,8348.00
2022-10-26T08:19:34.976Z,8408.00
2022-10-26T08:20:34.961Z,8452.00
2022-10-26T08:21:39.751Z,8496.00
2022-10-26T08:22:35.926Z,8576.00
2022-10-26T08:23:34.903Z,8700.00
2022-10-26T08:24:34.885Z,8896.00
2022-10-26T08:25:34.893Z,9128.00
2022-10-26T08:26:34.898Z,9424.00
2022-10-26T08:27:34.873Z,9672.00
2022-10-26T08:28:34.867Z,9892.00
2022-10-26T08:29:34.845Z,10120.00
2022-10-26T08:31:34.858Z,10624.00
2022-10-26T08:32:34.819Z,10832.00
2022-10-26T08:33:34.784Z,10984.00
2022-10-26T08:34:34.788Z,11124.00
2022-10-26T08:35:34.780Z,11272.00
2022-10-26T08:36:34.785Z,11416.00
2022-10-26T08:37:34.749Z,11508.00
2022-10-26T08:38:34.761Z,11620.00
2022-10-26T08:39:34.698Z,11704.00
2022-10-26T08:40:34.721Z,11748.00
2022-10-26T08:41:34.716Z,11716.00
2022-10-26T08:42:34.712Z,11604.00
2022-10-26T08:43:34.703Z,11480.00
2022-10-26T08:44:34.655Z,11364.00
2022-10-26T08:45:37.143Z,11224.00
2022-10-26T08:46:34.628Z,11080.00
2022-10-26T08:47:34.673Z,10956.00
2022-10-26T08:48:34.672Z,10868.00
2022-10-26T08:49:34.599Z,10832.00
2022-10-26T08:50:37.158Z,10932.00
2022-10-26T08:51:35.574Z,11156.00
2022-10-26T08:52:34.569Z,11468.00
2022-10-26T08:53:34.564Z,11784.00
2022-10-26T08:54:34.585Z,12100.00
2022-10-26T08:55:34.608Z,12420.00
2022-10-26T08:56:34.525Z,12728.00
2022-10-26T08:57:34.521Z,13104.00
2022-10-26T08:58:34.496Z,13452.00
2022-10-26T08:59:34.515Z,13644.00
2022-10-26T09:00:34.486Z,13492.00
2022-10-26T09:01:34.569Z,13192.00
2022-10-26T09:02:34.461Z,12788.00
2022-10-26T09:03:34.467Z,12204.00
2022-10-26T09:04:34.413Z,11532.00
2022-10-26T09:05:36.765Z,10716.00
2022-10-26T09:06:34.418Z,9992.00
2022-10-26T09:07:34.423Z,9468.00
2022-10-26T09:08:34.385Z,9168.00
2022-10-26T09:09:34.370Z,9032.00
2022-10-26T09:10:34.348Z,8992.00
2022-10-26T09:11:34.369Z,8860.00
2022-10-26T09:12:34.330Z,8540.00
2022-10-26T09:13:34.326Z,8172.00
2022-10-26T09:14:34.297Z,7928.00
2022-10-26T09:15:34.295Z,7764.00
2022-10-26T09:16:34.281Z,7652.00
2022-10-26T09:17:34.336Z,7580.00
2022-10-26T09:18:34.309Z,7516.00
2022-10-26T09:19:34.248Z,7420.00
2022-10-26T09:20:34.242Z,7312.00
2022-10-26T09:21:34.219Z,7212.00
2022-10-26T09:22:34.235Z,7132.00
2022-10-26T09:23:34.224Z,6948.00
2022-10-26T09:24:34.190Z,6656.00
2022-10-26T09:25:34.213Z,6272.00
2022-10-26T09:26:34.228Z,5936.00
2022-10-26T09:27:34.151Z,5684.00
2022-10-26T09:28:34.135Z,5452.00
2022-10-26T09:29:34.163Z,5280.00
2022-10-26T09:30:34.145Z,5192.00
2022-10-26T09:31:34.115Z,5164.00
2022-10-26T09:32:34.102Z,5236.00
2022-10-26T09:33:34.103Z,5524.00
2022-10-26T09:34:34.062Z,5708.00
2022-10-26T09:35:34.132Z,5624.00
2022-10-26T09:36:34.063Z,5500.00
2022-10-26T09:37:34.044Z,5328.00
2022-10-26T09:38:34.024Z,5104.00
2022-10-26T09:39:34.016Z,4872.00
2022-10-26T09:40:34.004Z,4588.00
2022-10-26T09:41:33.976Z,4424.00
2022-10-26T09:42:34.029Z,4348.00
2022-10-26T09:43:33.974Z,4396.00
2022-10-26T09:44:33.946Z,4460.00
2022-10-26T09:45:33.999Z,4272.00
2022-10-26T09:46:33.959Z,4184.00
2022-10-26T09:47:33.937Z,4256.00
2022-10-26T09:48:33.907Z,4532.00
2022-10-26T09:49:33.911Z,4748.00
2022-10-26T09:50:33.897Z,4788.00
2022-10-26T09:51:33.872Z,4716.00
2022-10-26T09:52:33.878Z,4648.00
2022-10-26T09:53:33.839Z,4584.00
2022-10-26T09:54:33.850Z,4572.00
2022-10-26T09:55:33.839Z,4764.00
2022-10-26T09:56:33.823Z,5008.00
2022-10-26T09:57:33.809Z,5120.00
2022-10-26T09:58:33.809Z,5132.00
2022-10-26T09:59:33.793Z,5208.00
2022-10-26T10:01:36.829Z,5016.00
2022-10-26T10:02:34.884Z,4884.00
2022-10-26T10:03:33.753Z,4692.00
2022-10-26T10:04:33.716Z,4376.00
2022-10-26T10:06:34.722Z,3860.00
2022-10-26T10:07:36.607Z,3724.00
2022-10-26T10:08:34.706Z,3552.00
2022-10-26T10:09:33.676Z,3440.00
2022-10-26T10:10:33.657Z,3372.00
2022-10-26T10:11:33.694Z,3408.00
2022-10-26T10:12:33.654Z,3608.00
2022-10-26T10:13:33.629Z,3884.00
2022-10-26T10:14:36.112Z,4276.00
2022-10-26T10:15:34.608Z,4876.00
2022-10-26T10:16:33.588Z,5196.00
2022-10-26T10:17:33.628Z,5160.00
2022-10-26T10:18:33.567Z,5144.00
2022-10-26T10:19:33.551Z,4972.00
2022-10-26T10:20:33.552Z,4656.00
2022-10-26T10:21:33.555Z,4464.00
2022-10-26T10:22:33.561Z,4420.00
2022-10-26T10:23:33.540Z,4360.00
2022-10-26T10:24:33.477Z,4256.00
2022-10-26T10:25:33.489Z,4140.00
2022-10-26T10:26:33.478Z,4036.00
2022-10-26T10:27:33.477Z,4016.00
2022-10-26T10:28:33.431Z,4040.00
2022-10-26T10:29:33.448Z,4044.00
2022-10-26T10:30:33.422Z,3984.00
2022-10-26T10:31:33.429Z,4000.00
2022-10-26T10:32:36.993Z,4096.00
2022-10-26T10:33:34.375Z,4204.00
2022-10-26T10:34:34.400Z,4376.00
2022-10-26T10:35:33.394Z,4456.00
2022-10-26T10:36:33.354Z,4508.00
2022-10-26T10:37:33.344Z,4636.00
2022-10-26T10:38:33.363Z,4752.00
2022-10-26T10:39:33.346Z,4792.00
2022-10-26T10:40:33.333Z,4756.00
2022-10-26T10:41:33.293Z,4600.00
2022-10-26T10:42:33.272Z,4388.00
2022-10-26T10:43:33.276Z,4296.00
2022-10-26T10:44:33.270Z,4336.00
2022-10-26T10:45:33.306Z,4416.00
2022-10-26T10:46:33.278Z,4412.00
2022-10-26T10:47:33.269Z,4380.00
2022-10-26T10:48:34.663Z,4416.00
2022-10-26T10:49:33.187Z,4448.00
2022-10-26T10:50:33.235Z,4384.00
2022-10-26T10:51:33.175Z,4400.00
2022-10-26T10:52:33.156Z,4688.00
2022-10-26T10:53:33.160Z,5032.00
2022-10-26T10:54:33.136Z,5472.00
2022-10-26T10:55:33.127Z,5788.00
2022-10-26T10:56:33.167Z,6076.00
2022-10-26T10:57:33.139Z,6400.00
2022-10-26T10:58:33.111Z,6500.00
2022-10-26T10:59:33.077Z,6472.00
2022-10-26T11:00:33.084Z,6240.00
2022-10-26T11:01:33.192Z,5832.00
2022-10-26T11:02:33.115Z,5556.00
2022-10-26T11:03:33.053Z,5436.00
2022-10-26T11:04:33.049Z,5412.00
2022-10-26T11:05:33.013Z,5588.00
2022-10-26T11:06:33.029Z,5628.00
2022-10-26T11:07:32.992Z,5500.00
2022-10-26T11:08:32.970Z,5488.00
2022-10-26T11:09:32.971Z,5400.00
2022-10-26T11:10:32.971Z,5700.00
2022-10-26T11:11:32.952Z,6196.00
2022-10-26T11:12:32.972Z,6764.00
2022-10-26T11:13:32.909Z,6936.00
2022-10-26T11:14:32.938Z,6940.00
2022-10-26T11:15:32.919Z,6860.00
2022-10-26T11:16:32.902Z,6592.00
2022-10-26T11:17:32.871Z,6088.00
2022-10-26T11:18:32.866Z,5392.00
2022-10-26T11:19:32.872Z,4700.00
2022-10-26T11:20:32.856Z,4064.00
2022-10-26T11:21:32.849Z,3992.00
2022-10-26T11:22:32.834Z,4244.00
2022-10-26T11:23:32.860Z,4560.00
2022-10-26T11:24:32.815Z,5020.00
2022-10-26T11:25:32.786Z,6164.00
2022-10-26T11:26:32.781Z,7304.00
2022-10-26T11:27:32.771Z,7508.00
2022-10-26T11:28:32.766Z,7664.00
2022-10-26T11:29:35.144Z,7684.00
2022-10-26T11:30:33.749Z,7704.00
2022-10-26T11:31:32.720Z,7284.00
2022-10-26T11:32:32.687Z,6572.00
2022-10-26T11:33:32.721Z,5892.00
2022-10-26T11:34:32.669Z,5536.00
2022-10-26T11:35:32.710Z,5328.00
2022-10-26T11:36:32.655Z,5172.00
2022-10-26T11:37:32.685Z,4972.00
2022-10-26T11:38:45.560Z,4600.00
2022-10-26T11:39:33.620Z,4244.00
2022-10-26T11:40:32.599Z,4256.00
2022-10-26T11:41:32.609Z,4276.00
2022-10-26T11:42:32.590Z,3944.00
2022-10-26T11:43:32.593Z,3364.00
2022-10-26T11:44:32.576Z,3236.00
2022-10-26T11:45:32.545Z,3284.00
2022-10-26T11:46:32.577Z,3284.00
2022-10-26T11:47:32.541Z,3436.00
2022-10-26T11:48:32.554Z,3276.00
2022-10-26T11:49:32.494Z,3100.00
2022-10-26T11:50:32.515Z,2972.00
2022-10-26T11:51:32.485Z,2872.00
2022-10-26T11:52:32.526Z,2828.00
2022-10-26T11:53:32.453Z,2776.00
2022-10-26T11:54:32.468Z,2672.00
2022-10-26T11:55:32.487Z,2640.00
2022-10-26T11:56:32.450Z,2632.00
2022-10-26T11:57:32.459Z,2740.00
2022-10-26T11:58:32.385Z,2948.00
2022-10-26T11:59:33.531Z,3264.00
2022-10-26T12:00:32.388Z,4008.00
2022-10-26T12:01:32.500Z,4704.00
2022-10-26T12:02:32.506Z,5392.00
2022-10-26T12:03:32.429Z,5768.00
2022-10-26T12:04:32.328Z,5672.00
2022-10-26T12:05:32.320Z,5252.00
2022-10-26T12:06:32.326Z,4900.00
2022-10-26T12:07:32.287Z,4652.00
2022-10-26T12:08:32.298Z,4180.00
2022-10-26T12:09:34.924Z,3592.00
2022-10-26T12:10:32.269Z,3032.00
2022-10-26T12:11:32.272Z,2680.00
2022-10-26T12:12:35.030Z,2540.00
2022-10-26T12:13:33.251Z,2388.00
2022-10-26T12:14:32.253Z,2228.00
2022-10-26T12:15:45.581Z,2136.00
2022-10-26T12:16:33.183Z,2048.00
2022-10-26T12:17:32.202Z,1956.00
2022-10-26T12:18:53.863Z,1844.00
2022-10-26T12:19:33.150Z,1828.00
2022-10-26T12:20:32.202Z,2056.00
2022-10-26T12:21:32.158Z,2516.00
2022-10-26T12:22:32.156Z,3248.00
2022-10-26T12:23:40.743Z,3896.00
2022-10-26T12:24:33.106Z,4356.00
2022-10-26T12:25:32.106Z,4544.00
2022-10-26T12:26:32.112Z,4260.00
2022-10-26T12:27:32.086Z,4036.00
2022-10-26T12:28:32.086Z,3800.00
2022-10-26T12:29:32.040Z,3508.00
2022-10-26T12:30:32.060Z,3308.00
2022-10-26T12:31:32.105Z,3300.00
2022-10-26T12:32:32.058Z,3512.00
2022-10-26T12:33:32.008Z,3820.00
2022-10-26T12:34:32.075Z,4032.00
2022-10-26T12:35:31.966Z,4208.00
2022-10-26T12:36:31.980Z,4612.00
2022-10-26T12:37:31.967Z,5384.00
2022-10-26T12:38:33.875Z,6316.00
2022-10-26T12:39:31.929Z,7248.00
2022-10-26T12:40:31.907Z,7612.00
2022-10-26T12:41:31.896Z,7576.00
2022-10-26T12:42:31.936Z,7356.00
2022-10-26T12:43:31.980Z,7436.00